Moonbeam, Canada
Current Conditions -  °F | °C
As of 4:00 AM on Monday 22 Dec 2014 (Local Time) from CYYU Reporting Station
Light Snow Light Snow  
Wind Chill: 17°   Ceiling: 1800
Heat Index: 27°   Visibility: 7mi
Dew Point: 25°   Wind: 10mph
Humidity: 93%   Direction: 170°S
Pressure: 30.04"   Gusts: NA
Location:  49.34°N, 82.15°W
Report Text: CYYU 220900Z 17009KT 7SM -SN OVC018 M03/M04 A3004 RMK SC8 SLP187
Loading
Personal Weather Stations






























Interactive Weather Map New forecast layout! Learn more

10-Day Weather Forecast

Advertisements
Track Severe Weather on mobile